This is the latest recevied weather packets stored in our database for station/object SQ7ACP-3. If no packets are shown the sender has not sent any weather packets the latest 10 day(s).
| Time | Temp. | Humidity | Pressure | Rain* | Wind** | Luminosity | Snow |
|---|---|---|---|---|---|---|---|
| 1778169793 | 15° C | 79% | 1011.3 hPa | 0 mm | - | - | - |
| 1778169189 | 15.56° C | 79% | 1011.1 hPa | 0 mm | - | - | - |
| 1778168580 | 16.11° C | 77% | 1011.2 hPa | 0 mm | - | - | - |
| 1778167970 | 15.56° C | 77% | 1011.2 hPa | 0 mm | - | - | - |
| 1778167358 | 16.11° C | 77% | 1011.4 hPa | 0 mm | - | - | - |
| 1778166743 | 16.67° C | 76% | 1010.4 hPa | 0 mm | - | - | - |
| 1778166139 | 16.67° C | 74% | 1010.9 hPa | 0 mm | - | - | - |
| 1778165532 | 17.22° C | 73% | 1011 hPa | 0 mm | - | - | - |
| 1778164921 | 17.22° C | 73% | 1010.7 hPa | 0 mm | - | - | - |
| 1778164318 | 17.22° C | 70% | 1011 hPa | 0 mm | - | - | - |
| 1778163118 | 17.22° C | 71% | 1010.9 hPa | 0 mm | - | - | - |
| 1778162511 | 17.22° C | 73% | 1010.9 hPa | 0 mm | - | - | - |
| 1778161905 | 17.22° C | 72% | 1010.9 hPa | 0 mm | - | - | - |
| 1778161305 | 17.78° C | 70% | 1010.9 hPa | 0 mm | - | - | - |
| 1778160692 | 17.78° C | 70% | 1011 hPa | 0 mm | - | - | - |
| 1778160083 | 17.22° C | 71% | 1010.7 hPa | 0 mm | - | - | - |
| 1778159480 | 16.67° C | 73% | 1010.8 hPa | 0 mm | - | - | - |
| 1778158867 | 16.67° C | 75% | 1010.8 hPa | 0 mm | - | - | - |
| 1778158267 | 16.67° C | 76% | 1011 hPa | 0 mm | - | - | - |
| 1778157654 | 16.67° C | 75% | 1011 hPa | 0 mm | - | - | - |
| 1778157042 | 17.22° C | 73% | 1011 hPa | 0 mm | - | - | - |
| 1778156430 | 16.67° C | 75% | 1011 hPa | 0 mm | - | - | - |
| 1778155817 | 16.11° C | 77% | 1011.1 hPa | 0 mm | - | - | - |
| 1778155205 | 16.67° C | 75% | 1011.1 hPa | 0 mm | - | - | - |
| 1778154605 | 15.56° C | 78% | 1011.1 hPa | 0 mm | - | - | - |
* Rain latest hour (hover to see other rain measurements)
** Current wind speed in m/s (hover to see current wind gust speed)